Wetterdaten: Donnerstag, 19.03.2015
Datum Zeit Temp. A. Feuchte A. Luftdruck Regen Wind Richtung Richtung Sonnenschein ET UV Solar Taupunkt Windchill Windben Empfang
19.03.2015 00:00 2,4 C 58 % 1024,3 hPa 0,0 l/m 0,0 km/h (0 Bft) S 172 0 min 0,000 mm 0,0 UV-I 0 W/m -5,0 C 2,4 C 0,0 km/h (0 Bft) 0,00 %
19.03.2015 00:15 2,5 C 58 % 1024,1 hPa 0,0 l/m 0,0 km/h (0 Bft) SO 133 0 min 0,000 mm 0,0 UV-I 0 W/m -4,9 C 2,5 C 0,0 km/h (0 Bft) 0,00 %
19.03.2015 00:30 2,6 C 53 % 1024,2 hPa 0,0 l/m 0,0 km/h (0 Bft) S 175 0 min 0,000 mm 0,0 UV-I 0 W/m -6,0 C 2,6 C 0,0 km/h (0 Bft) 0,00 %
19.03.2015 00:45 2,0 C 58 % 1024,1 hPa 0,0 l/m 0,0 km/h (0 Bft) SW 227 0 min 0,000 mm 0,0 UV-I 0 W/m -5,4 C 2,0 C 0,0 km/h (0 Bft) 0,00 %
19.03.2015 01:00 1,3 C 61 % 1024,3 hPa 0,0 l/m 0,0 km/h (0 Bft) S 187 0 min 0,000 mm 0,0 UV-I 0 W/m -5,4 C 1,3 C 0,0 km/h (0 Bft) 0,00 %
19.03.2015 01:15 0,7 C 62 % 1024,3 hPa 0,0 l/m 0,0 km/h (0 Bft) S 177 0 min 0,000 mm 0,0 UV-I 0 W/m -5,7 C 0,7 C 0,0 km/h (0 Bft) 0,00 %
19.03.2015 01:30 0,7 C 60 % 1024,4 hPa 0,0 l/m 0,0 km/h (0 Bft) S 178 0 min 0,000 mm 0,0 UV-I 0 W/m -6,2 C 0,7 C 0,0 km/h (0 Bft) 0,00 %
19.03.2015 01:45 0,9 C 60 % 1024,4 hPa 0,0 l/m 0,0 km/h (0 Bft) S 179 0 min 0,000 mm 0,0 UV-I 0 W/m -6,0 C 0,9 C 0,0 km/h (0 Bft) 0,00 %
19.03.2015 02:00 0,8 C 61 % 1024,5 hPa 0,0 l/m 0,0 km/h (0 Bft) S 179 0 min 0,000 mm 0,0 UV-I 0 W/m -5,8 C 0,8 C 0,0 km/h (0 Bft) 0,00 %
19.03.2015 02:15 0,3 C 63 % 1024,3 hPa 0,0 l/m 0,0 km/h (0 Bft) S 187 0 min 0,000 mm 0,0 UV-I 0 W/m -5,9 C 0,3 C 0,0 km/h (0 Bft) 0,00 %
19.03.2015 02:30 0,5 C 64 % 1024,3 hPa 0,0 l/m 0,0 km/h (0 Bft) S 182 0 min 0,000 mm 0,0 UV-I 0 W/m -5,5 C 0,5 C 0,0 km/h (0 Bft) 0,00 %
19.03.2015 02:45 0,0 C 66 % 1024,4 hPa 0,0 l/m 0,0 km/h (0 Bft) S 176 0 min 0,000 mm 0,0 UV-I 0 W/m -5,6 C 0,0 C 0,0 km/h (0 Bft) 0,00 %
19.03.2015 03:00 -0,2 C 66 % 1024,4 hPa 0,0 l/m 0,0 km/h (0 Bft) S-SW 205 0 min 0,000 mm 0,0 UV-I 0 W/m -5,8 C -0,2 C 0,0 km/h (0 Bft) 0,00 %
19.03.2015 03:15 -0,5 C 70 % 1024,3 hPa 0,0 l/m 0,0 km/h (0 Bft) S-SW 208 0 min 0,000 mm 0,0 UV-I 0 W/m -5,3 C -0,5 C 0,0 km/h (0 Bft) 0,00 %
19.03.2015 03:30 -0,6 C 70 % 1024,3 hPa 0,0 l/m 0,0 km/h (0 Bft) S 183 0 min 0,000 mm 0,0 UV-I 0 W/m -5,4 C -0,6 C 0,0 km/h (0 Bft) 0,00 %
19.03.2015 03:45 -0,7 C 71 % 1024,5 hPa 0,0 l/m 0,0 km/h (0 Bft) S 176 0 min 0,000 mm 0,0 UV-I 0 W/m -5,3 C -0,7 C 0,0 km/h (0 Bft) 0,00 %
19.03.2015 04:00 -1,1 C 73 % 1024,6 hPa 0,0 l/m 0,0 km/h (0 Bft) S 183 0 min 0,000 mm 0,0 UV-I 0 W/m -5,3 C -1,1 C 0,0 km/h (0 Bft) 0,00 %
19.03.2015 04:15 -1,3 C 75 % 1024,7 hPa 0,0 l/m 0,0 km/h (0 Bft) S 183 0 min 0,000 mm 0,0 UV-I 0 W/m -5,1 C -1,3 C 0,0 km/h (0 Bft) 0,00 %
19.03.2015 04:30 -1,4 C 74 % 1024,8 hPa 0,0 l/m 0,0 km/h (0 Bft) S 183 0 min 0,000 mm 0,0 UV-I 0 W/m -5,4 C -1,4 C 0,0 km/h (0 Bft) 0,00 %
19.03.2015 04:45 -1,0 C 70 % 1024,8 hPa 0,0 l/m 0,0 km/h (0 Bft) S 176 0 min 0,000 mm 0,0 UV-I 0 W/m -5,8 C -1,0 C 0,0 km/h (0 Bft) 0,00 %
19.03.2015 05:00 -0,5 C 71 % 1024,7 hPa 0,0 l/m 0,0 km/h (0 Bft) S 176 0 min 0,000 mm 0,0 UV-I 0 W/m -5,1 C -0,5 C 0,0 km/h (0 Bft) 0,00 %
19.03.2015 05:15 -0,5 C 69 % 1024,7 hPa 0,0 l/m 0,0 km/h (0 Bft) S 179 0 min 0,000 mm 0,0 UV-I 0 W/m -5,5 C -0,5 C 0,0 km/h (0 Bft) 0,00 %
19.03.2015 05:30 -0,5 C 69 % 1024,7 hPa 0,0 l/m 0,0 km/h (0 Bft) S 173 0 min 0,000 mm 0,0 UV-I 0 W/m -5,5 C -0,5 C 0,0 km/h (0 Bft) 0,00 %
19.03.2015 05:45 -0,9 C 71 % 1025,0 hPa 0,0 l/m 0,0 km/h (0 Bft) S-SW 192 0 min 0,000 mm 0,0 UV-I 0 W/m -5,5 C -0,9 C 0,0 km/h (0 Bft) 0,00 %
19.03.2015 06:00 -1,6 C 73 % 1025,4 hPa 0,0 l/m 0,0 km/h (0 Bft) S 176 0 min 0,000 mm 0,0 UV-I 0 W/m -5,8 C -1,6 C 0,0 km/h (0 Bft) 0,00 %
19.03.2015 06:15 -2,0 C 75 % 1025,7 hPa 0,0 l/m 0,0 km/h (0 Bft) S 180 0 min 0,000 mm 0,0 UV-I 0 W/m -5,8 C -2,0 C 0,0 km/h (0 Bft) 0,00 %
19.03.2015 06:30 -2,1 C 77 % 1025,8 hPa 0,0 l/m 0,0 km/h (0 Bft) S 177 15 min 0,000 mm 0,0 UV-I 40 W/m -5,6 C -2,1 C 0,0 km/h (0 Bft) 0,00 %
19.03.2015 06:45 -1,3 C 74 % 1025,7 hPa 0,0 l/m 0,0 km/h (0 Bft) S 175 15 min 0,000 mm 0,0 UV-I 88 W/m -5,3 C -1,3 C 0,0 km/h (0 Bft) 0,00 %
19.03.2015 07:00 0,1 C 67 % 1025,5 hPa 0,0 l/m 0,0 km/h (0 Bft) S 174 15 min 0,000 mm 1,0 UV-I 99 W/m -5,3 C 0,1 C 0,0 km/h (0 Bft) 0,00 %
19.03.2015 07:15 1,7 C 60 % 1025,6 hPa 0,0 l/m 0,0 km/h (0 Bft) S 177 15 min 0,000 mm 1,0 UV-I 133 W/m -5,2 C 1,7 C 0,0 km/h (0 Bft) 0,00 %
19.03.2015 07:30 1,9 C 60 % 1025,6 hPa 0,0 l/m 0,0 km/h (0 Bft) S 189 15 min 0,000 mm 1,0 UV-I 155 W/m -5,0 C 1,9 C 0,0 km/h (0 Bft) 0,00 %
19.03.2015 07:45 3,2 C 60 % 1025,4 hPa 0,0 l/m 0,0 km/h (0 Bft) S-SW 206 15 min 0,000 mm 1,0 UV-I 177 W/m -3,8 C 3,2 C 0,0 km/h (0 Bft) 0,00 %
19.03.2015 08:00 3,5 C 59 % 1025,4 hPa 0,0 l/m 0,0 km/h (0 Bft) O-SO 117 15 min 0,000 mm 1,0 UV-I 188 W/m -3,7 C 3,5 C 0,0 km/h (0 Bft) 0,00 %
19.03.2015 08:15 3,9 C 59 % 1025,6 hPa 0,0 l/m 1,4 km/h (1 Bft) O 79 15 min 0,000 mm 1,0 UV-I 199 W/m -3,4 C 3,9 C 4,0 km/h (1 Bft) 0,00 %
19.03.2015 08:30 3,3 C 62 % 1025,9 hPa 0,0 l/m 0,0 km/h (0 Bft) O 85 15 min 0,000 mm 1,0 UV-I 222 W/m -3,3 C 3,3 C 0,0 km/h (0 Bft) 0,00 %
19.03.2015 08:45 4,1 C 59 % 1025,7 hPa 0,0 l/m 0,0 km/h (0 Bft) S-SO 153 0 min 0,000 mm 2,0 UV-I 211 W/m -3,2 C 4,1 C 0,0 km/h (0 Bft) 0,00 %
19.03.2015 09:00 4,3 C 57 % 1025,7 hPa 0,0 l/m 11,9 km/h (2 Bft) O-SO 103 0 min 0,000 mm 2,0 UV-I 200 W/m -3,5 C 0,0 C 11,9 km/h (2 Bft) 0,00 %
19.03.2015 09:15 4,8 C 55 % 1025,7 hPa 0,0 l/m 0,0 km/h (0 Bft) O-SO 114 0 min 0,000 mm 2,0 UV-I 218 W/m -3,5 C 4,8 C 0,0 km/h (0 Bft) 0,00 %
19.03.2015 09:30 5,4 C 53 % 1025,6 hPa 0,0 l/m 2,9 km/h (1 Bft) O-NO 74 0 min 0,000 mm 2,0 UV-I 245 W/m -3,4 C 5,4 C 7,9 km/h (2 Bft) 0,00 %
19.03.2015 09:45 5,8 C 52 % 1025,6 hPa 0,0 l/m 1,4 km/h (1 Bft) SO 128 0 min 0,000 mm 2,0 UV-I 244 W/m -3,3 C 5,8 C 4,0 km/h (1 Bft) 0,00 %
19.03.2015 10:00 6,4 C 49 % 1025,4 hPa 0,0 l/m 7,9 km/h (2 Bft) O-SO 105 0 min 0,000 mm 3,0 UV-I 219 W/m -3,5 C 5,2 C 7,9 km/h (2 Bft) 0,00 %
19.03.2015 10:15 7,0 C 48 % 1025,3 hPa 0,0 l/m 3,2 km/h (1 Bft) SO 130 0 min 0,000 mm 3,0 UV-I 247 W/m -3,2 C 7,0 C 7,9 km/h (2 Bft) 0,00 %
19.03.2015 10:30 7,4 C 47 % 1025,2 hPa 0,0 l/m 6,8 km/h (2 Bft) O 100 0 min 0,000 mm 3,0 UV-I 273 W/m -3,2 C 7,1 C 7,9 km/h (2 Bft) 0,00 %
19.03.2015 10:45 8,5 C 45 % 1025,1 hPa 0,0 l/m 4,3 km/h (1 Bft) O 98 0 min 0,000 mm 3,0 UV-I 311 W/m -2,7 C 8,5 C 7,9 km/h (2 Bft) 0,00 %
19.03.2015 11:00 8,9 C 42 % 1024,9 hPa 0,0 l/m 2,2 km/h (1 Bft) SO 124 15 min 0,000 mm 3,0 UV-I 348 W/m -3,3 C 8,9 C 4,0 km/h (1 Bft) 0,00 %
19.03.2015 11:15 9,6 C 42 % 1024,6 hPa 0,0 l/m 0,0 km/h (0 Bft) S 184 15 min 0,000 mm 4,0 UV-I 377 W/m -2,7 C 9,6 C 0,0 km/h (0 Bft) 0,00 %
19.03.2015 11:30 9,8 C 38 % 1024,4 hPa 0,0 l/m 0,0 km/h (0 Bft) S 183 0 min 0,000 mm 4,0 UV-I 194 W/m -3,8 C 9,8 C 0,0 km/h (0 Bft) 0,00 %
19.03.2015 11:45 9,9 C 39 % 1024,3 hPa 0,0 l/m 1,8 km/h (1 Bft) N-NO 25 15 min 0,000 mm 4,0 UV-I 468 W/m -3,4 C 9,9 C 4,0 km/h (1 Bft) 0,00 %
19.03.2015 12:00 10,3 C 38 % 1024,2 hPa 0,0 l/m 1,8 km/h (1 Bft) O 88 15 min 0,000 mm 4,0 UV-I 485 W/m -3,4 C 10,3 C 4,0 km/h (1 Bft) 0,00 %
19.03.2015 12:15 10,2 C 38 % 1024,2 hPa 0,0 l/m 8,3 km/h (2 Bft) O 99 15 min 0,000 mm 4,0 UV-I 489 W/m -3,5 C 8,9 C 11,9 km/h (2 Bft) 0,00 %
19.03.2015 12:30 10,4 C 32 % 1024,0 hPa 0,0 l/m 7,9 km/h (2 Bft) O 93 0 min 0,000 mm 4,0 UV-I 224 W/m -5,6 C 9,3 C 11,9 km/h (2 Bft) 0,00 %
19.03.2015 12:45 10,3 C 31 % 1023,9 hPa 0,0 l/m 0,4 km/h (0 Bft) SO 140 0 min 0,000 mm 4,0 UV-I 219 W/m -6,1 C 10,3 C 4,0 km/h (1 Bft) 0,00 %
19.03.2015 13:00 10,7 C 30 % 1023,7 hPa 0,0 l/m 4,3 km/h (1 Bft) SO 140 15 min 0,000 mm 2,0 UV-I 553 W/m -6,1 C 10,7 C 7,9 km/h (2 Bft) 0,00 %
19.03.2015 13:15 10,6 C 29 % 1023,3 hPa 0,0 l/m 0,7 km/h (0 Bft) O-SO 116 15 min 0,000 mm 2,0 UV-I 555 W/m -6,7 C 10,6 C 4,0 km/h (1 Bft) 0,00 %
19.03.2015 13:30 10,9 C 23 % 1023,2 hPa 0,0 l/m 4,3 km/h (1 Bft) O-NO 66 15 min 0,000 mm 2,0 UV-I 550 W/m -9,4 C 10,9 C 7,9 km/h (2 Bft) 0,00 %
19.03.2015 13:45 11,2 C 20 % 1023,1 hPa 0,0 l/m 0,0 km/h (0 Bft) S-SO 149 15 min 0,000 mm 2,0 UV-I 545 W/m -10,9 C 11,2 C 0,0 km/h (0 Bft) 0,00 %
19.03.2015 14:00 11,3 C 20 % 1022,6 hPa 0,0 l/m 1,4 km/h (1 Bft) NO 39 15 min 0,000 mm 2,0 UV-I 550 W/m -10,8 C 11,3 C 4,0 km/h (1 Bft) 0,00 %
19.03.2015 14:15 11,2 C 19 % 1022,7 hPa 0,0 l/m 5,8 km/h (2 Bft) O-NO 74 15 min 0,000 mm 2,0 UV-I 555 W/m -11,5 C 11,2 C 7,9 km/h (2 Bft) 0,00 %
19.03.2015 14:30 11,3 C 20 % 1022,5 hPa 0,0 l/m 4,7 km/h (1 Bft) SO 125 15 min 0,000 mm 2,0 UV-I 560 W/m -10,8 C 11,3 C 7,9 km/h (2 Bft) 0,00 %
19.03.2015 14:45 11,4 C 19 % 1022,5 hPa 0,0 l/m 5,4 km/h (1 Bft) O 98 15 min 0,000 mm 2,0 UV-I 565 W/m -11,4 C 11,4 C 7,9 km/h (2 Bft) 0,00 %
19.03.2015 15:00 11,6 C 19 % 1022,6 hPa 0,0 l/m 4,7 km/h (1 Bft) O 96 15 min 0,000 mm 2,0 UV-I 570 W/m -11,2 C 11,6 C 7,9 km/h (2 Bft) 0,00 %
19.03.2015 15:15 11,7 C 18 % 1022,2 hPa 0,0 l/m 3,2 km/h (1 Bft) O-NO 62 15 min 0,000 mm 2,0 UV-I 565 W/m -11,8 C 11,7 C 4,0 km/h (1 Bft) 0,00 %
19.03.2015 15:30 11,7 C 19 % 1022,1 hPa 0,0 l/m 2,2 km/h (1 Bft) O 86 15 min 0,000 mm 2,0 UV-I 560 W/m -11,1 C 11,7 C 4,0 km/h (1 Bft) 0,00 %
19.03.2015 15:45 11,8 C 18 % 1022,0 hPa 0,0 l/m 1,4 km/h (1 Bft) O-SO 110 15 min 0,000 mm 1,0 UV-I 555 W/m -11,7 C 11,8 C 4,0 km/h (1 Bft) 0,00 %
19.03.2015 16:00 12,3 C 20 % 1021,8 hPa 0,0 l/m 0,0 km/h (0 Bft) S 171 15 min 0,000 mm 1,0 UV-I 550 W/m -10,0 C 12,3 C 0,0 km/h (0 Bft) 0,00 %
19.03.2015 16:15 13,0 C 19 % 1021,5 hPa 0,0 l/m 0,0 km/h (0 Bft) S-SO 152 15 min 0,000 mm 1,0 UV-I 545 W/m -10,1 C 13,0 C 0,0 km/h (0 Bft) 0,00 %
19.03.2015 16:30 12,8 C 22 % 1021,9 hPa 0,0 l/m 0,4 km/h (0 Bft) O 100 15 min 0,000 mm 1,0 UV-I 540 W/m -8,4 C 12,8 C 4,0 km/h (1 Bft) 0,00 %
19.03.2015 16:45 12,6 C 21 % 1021,9 hPa 0,0 l/m 0,0 km/h (0 Bft) O-SO 123 15 min 0,000 mm 1,0 UV-I 493 W/m -9,1 C 12,6 C 0,0 km/h (0 Bft) 0,00 %
19.03.2015 17:00 12,7 C 21 % 1021,9 hPa 0,0 l/m 0,0 km/h (0 Bft) SO 136 15 min 0,000 mm 1,0 UV-I 375 W/m -9,0 C 12,7 C 0,0 km/h (0 Bft) 0,00 %
19.03.2015 17:15 12,3 C 19 % 1021,9 hPa 0,0 l/m 1,8 km/h (1 Bft) SO 137 15 min 0,000 mm 1,0 UV-I 288 W/m -10,6 C 12,3 C 4,0 km/h (1 Bft) 0,00 %
19.03.2015 17:30 12,1 C 20 % 1022,0 hPa 0,0 l/m 0,0 km/h (0 Bft) SO 130 15 min 0,000 mm 0,0 UV-I 175 W/m -10,2 C 12,1 C 0,0 km/h (0 Bft) 0,00 %
19.03.2015 17:45 11,5 C 24 % 1022,0 hPa 0,0 l/m 0,0 km/h (0 Bft) S-SO 154 15 min 0,000 mm 0,0 UV-I 113 W/m -8,3 C 11,5 C 0,0 km/h (0 Bft) 0,00 %
19.03.2015 18:00 10,6 C 30 % 1022,3 hPa 0,0 l/m 0,0 km/h (0 Bft) S 176 0 min 0,000 mm 0,0 UV-I 12 W/m -6,2 C 10,6 C 0,0 km/h (0 Bft) 0,00 %
19.03.2015 18:15 9,2 C 36 % 1022,5 hPa 0,0 l/m 0,0 km/h (0 Bft) S 179 0 min 0,000 mm 0,0 UV-I 0 W/m -5,1 C 9,2 C 0,0 km/h (0 Bft) 0,00 %
19.03.2015 18:30 7,8 C 39 % 1022,7 hPa 0,0 l/m 0,0 km/h (0 Bft) S-SO 153 0 min 0,000 mm 0,0 UV-I 0 W/m -5,3 C 7,8 C 0,0 km/h (0 Bft) 0,00 %
19.03.2015 18:45 7,3 C 39 % 1022,8 hPa 0,0 l/m 0,0 km/h (0 Bft) S-SO 156 0 min 0,000 mm 0,0 UV-I 0 W/m -5,7 C 7,3 C 0,0 km/h (0 Bft) 0,00 %
19.03.2015 19:00 7,1 C 40 % 1023,1 hPa 0,0 l/m 0,0 km/h (0 Bft) S 173 0 min 0,000 mm 0,0 UV-I 0 W/m -5,6 C 7,1 C 0,0 km/h (0 Bft) 0,00 %
19.03.2015 19:15 7,5 C 34 % 1023,3 hPa 0,0 l/m 0,0 km/h (0 Bft) SO 124 0 min 0,000 mm 0,0 UV-I 0 W/m -7,3 C 7,5 C 0,0 km/h (0 Bft) 0,00 %
19.03.2015 19:30 6,8 C 44 % 1023,5 hPa 0,0 l/m 0,0 km/h (0 Bft) S 183 0 min 0,000 mm 0,0 UV-I 0 W/m -4,6 C 6,8 C 0,0 km/h (0 Bft) 0,00 %
19.03.2015 19:45 6,1 C 40 % 1023,8 hPa 0,0 l/m 0,0 km/h (0 Bft) S 173 0 min 0,000 mm 0,0 UV-I 0 W/m -6,5 C 6,1 C 0,0 km/h (0 Bft) 0,00 %
19.03.2015 20:00 6,7 C 41 % 1023,8 hPa 0,0 l/m 0,0 km/h (0 Bft) SO 143 0 min 0,000 mm 0,0 UV-I 0 W/m -5,6 C 6,7 C 0,0 km/h (0 Bft) 0,00 %
19.03.2015 20:15 6,4 C 42 % 1023,8 hPa 0,0 l/m 1,4 km/h (1 Bft) O-SO 122 0 min 0,000 mm 0,0 UV-I 0 W/m -5,6 C 6,4 C 4,0 km/h (1 Bft) 0,00 %
19.03.2015 20:30 6,4 C 44 % 1024,1 hPa 0,0 l/m 2,2 km/h (1 Bft) SO 142 0 min 0,000 mm 0,0 UV-I 0 W/m -4,9 C 6,4 C 4,0 km/h (1 Bft) 0,00 %
19.03.2015 20:45 6,3 C 46 % 1024,1 hPa 0,0 l/m 0,0 km/h (0 Bft) SO 129 0 min 0,000 mm 0,0 UV-I 0 W/m -4,5 C 6,3 C 0,0 km/h (0 Bft) 0,00 %
19.03.2015 21:00 5,7 C 49 % 1024,4 hPa 0,0 l/m 0,0 km/h (0 Bft) SO 135 0 min 0,000 mm 0,0 UV-I 0 W/m -4,2 C 5,7 C 0,0 km/h (0 Bft) 0,00 %
19.03.2015 21:15 5,2 C 53 % 1024,4 hPa 0,0 l/m 0,0 km/h (0 Bft) S 174 0 min 0,000 mm 0,0 UV-I 0 W/m -3,6 C 5,2 C 0,0 km/h (0 Bft) 0,00 %
19.03.2015 21:30 4,7 C 52 % 1024,7 hPa 0,0 l/m 0,0 km/h (0 Bft) S 173 0 min 0,000 mm 0,0 UV-I 0 W/m -4,3 C 4,7 C 0,0 km/h (0 Bft) 0,00 %
19.03.2015 21:45 4,5 C 52 % 1024,6 hPa 0,0 l/m 0,0 km/h (0 Bft) SO 134 0 min 0,000 mm 0,0 UV-I 0 W/m -4,5 C 4,5 C 0,0 km/h (0 Bft) 0,00 %
19.03.2015 22:00 4,5 C 54 % 1024,7 hPa 0,0 l/m 0,0 km/h (0 Bft) S 173 0 min 0,000 mm 0,0 UV-I 0 W/m -4,0 C 4,5 C 0,0 km/h (0 Bft) 0,00 %
19.03.2015 22:15 4,1 C 55 % 1024,7 hPa 0,0 l/m 0,0 km/h (0 Bft) SO 144 0 min 0,000 mm 0,0 UV-I 0 W/m -4,1 C 4,1 C 0,0 km/h (0 Bft) 0,00 %
19.03.2015 22:30 3,9 C 57 % 1024,6 hPa 0,0 l/m 0,0 km/h (0 Bft) S-SO 153 0 min 0,000 mm 0,0 UV-I 0 W/m -3,8 C 3,9 C 0,0 km/h (0 Bft) 0,00 %
19.03.2015 22:45 3,5 C 59 % 1024,9 hPa 0,0 l/m 0,0 km/h (0 Bft) S 173 0 min 0,000 mm 0,0 UV-I 0 W/m -3,7 C 3,5 C 0,0 km/h (0 Bft) 0,00 %
19.03.2015 23:00 3,0 C 61 % 1024,7 hPa 0,0 l/m 0,0 km/h (0 Bft) S-SO 155 0 min 0,000 mm 0,0 UV-I 0 W/m -3,8 C 3,0 C 0,0 km/h (0 Bft) 0,00 %
19.03.2015 23:15 2,7 C 58 % 1024,8 hPa 0,0 l/m 0,0 km/h (0 Bft) S 173 0 min 0,000 mm 0,0 UV-I 0 W/m -4,7 C 2,7 C 0,0 km/h (0 Bft) 0,00 %
19.03.2015 23:30 2,1 C 60 % 1024,8 hPa 0,0 l/m 0,0 km/h (0 Bft) S-SW 198 0 min 0,000 mm 0,0 UV-I 0 W/m -4,8 C 2,1 C 0,0 km/h (0 Bft) 0,00 %
19.03.2015 23:45 1,5 C 62 % 1024,8 hPa 0,0 l/m 0,0 km/h (0 Bft) S 178 0 min 0,000 mm 0,0 UV-I 0 W/m -5,0 C 1,5 C 0,0 km/h (0 Bft) 0,00 %
_ Min-Zeit 06:30 15:15 16:15 - 00:00 - - - - - - 15:15 06:30 00:00 00:00
Minimum _ -2,1 C 18 % 1021,5 hPa - 0,0 km/h (0 Bft) - - - - - - -11,8 C -2,1 C 0,0 km/h (0 Bft) 0,00 %
_ Max-Zeit 16:15 06:30 08:30 00:00 09:00 - - 06:30 00:00 11:15 15:00 11:15 16:15 09:00 00:00
Maximum _ 13,0 C 77 % 1025,9 hPa 0,0 l/m 11,9 km/h
O-SO (2 Bft)
- - 15 min 0,000 mm 4,0 UV-I 570 W/m -2,7 C 13,0 C 11,9 km/h
O-SO (2 Bft)
0,00 %
Durchschnitt _ 5,4 C 48 % 1024,1 hPa #0,0 l/m 1,1 km/h (1 Bft) O - #8:30 h #0,000 mm 2,1 UV-I 341 W/m -5,9 C 5,3 C 1,9 km/h (1 Bft) 0,00 %